Главная страница
METAR-TAF:

METAR-TAF

Аэропорты :

Meriden-Markham Municipal Airport

Meriden, Коннектикут, США

широта: 41-30-35N, долгота: 072-49-40W, высота над уровнем моря: 31 м

Текущие метеонаблюдения

Эта сводка был подготовлена 8 минут назад, в 22:53 UTC
Ветер 9 Узел от юго-юго-восточный
Температура 13°C
Влажность 51%
Давление 1012 hPa
Видимость: 16.1 км
ясное небо

METAR: KMMK 072253Z AUTO 16009KT 10SM CLR 13/03 A2989 RMK AO2 SLP121 T01330033 $

Время: 19:01 (23:01 UTC)


TAF: отсутствует

Метеонаблюдения и прогнозы для более 4000 аэропортов (сводки METAR и TAF).

Имеющиеся станции представлены на карте желтыми и красными точками.

Чтобы увидеть название станции, наведите на нее мышь.

Затем щелкните, чтобы увидеть метеонаблюдения и метеопрогнозы.

Управление картой: чтобы увеличить масштаб, щелкните зеленые кнопки с черным крестиком; чтобы уменьшить масштаб, щелкните зеленую кнопку с тире; для просмотра соседних карт щелкайте зеленые стрелки.


METAR-TAF: